Denver, CO (80205)

9:51 AM MDT on July 24, 2017 (GMT -0600)
MDMNC2 | | Change Station

Elev 5303 ft 39.75 °N, 104.95 °W | Updated 67 days ago

Clear
Clear
65.0 °F
Feels Like 65.0 °F
N
9.0
Wind Variable Wind from WSW
Gusts 16.0 mph

Today
High -- | Low -- °F
--% Chance of Precip.
Yesterday
High -- | Low -- °F
Precip. -- in
Pressure 29.87 in
Visibility 10.0 miles
Clouds Few 11000 ft
Few 22000 ft
Dew Point 26 °F
Humidity 22%
Rainfall 0.00 in
Snow Depth Not available.
5:52 AM 8:20 PM
New Moon, 2% visible
METAR KBKF 241458Z 21008KT 10SM FEW110 FEW220 26/12 A3012 RMK AO2A SLP115 T02560123 52006
Pressure 29.87 in
Visibility 10.0 miles
Clouds Few 11000 ft
Few 22000 ft
Dew Point 26 °F
Humidity 22%
Rainfall 0.00 in
Snow Depth Not available.
5:52 AM 8:20 PM
New Moon, 2% visible
METAR KBKF 241458Z 21008KT 10SM FEW110 FEW220 26/12 A3012 RMK AO2A SLP115 T02560123 52006

Get Severe Weather Alerts

Thanks for signing up!

Be on the lookout for a verification email in your inbox.

You'll start receiving the daily forecast at 6 AM.

×

10-Day Weather Forecast

Almanac

Astronomy

Jul. 24, 2017 Rise Set
Actual Time
Civil Twilight
Nautical Twilight
Astronomical Twilight
Moon
Length of Visible Light
Length of Day
Tomorrow will be .
, % of the Moon is Illuminated

Today's Extremes

State Highs State Lows

Community

WunderPhotos

Category 6

Welcome to Category 6. This is the collective home for Weather Underground's featured writeups by Dr. Jeff Masters (right), Bob Henson (left), Chris Burt, and other regular contributors.

Nearby

Air Quality

  Air Quality AQ Index Pollutant
Not available.

Snow Depth

Station Depth Elevation

Earthquake Activity

City Distance Mag. Time & Date
Minimum magnitude displayed is 2.5.

Coastal Water Temperatures

Place Temperature

Stations

Nearby Weather Stations

Station Location Temp. Windchill Dew Point Humidity Wind Precip. Elev Updated Type
                   

Watches & Warnings

There are currently no watches in effect.